createdAt,value
2023-05-17T00:02:10.886Z,18.96
2023-05-17T00:04:38.026Z,18.99
2023-05-17T00:07:07.368Z,19.00
2023-05-17T00:09:34.437Z,18.98
2023-05-17T00:12:01.519Z,18.97
2023-05-17T00:14:31.844Z,18.95
2023-05-17T00:16:59.250Z,18.91
2023-05-17T00:19:30.059Z,18.87
2023-05-17T00:22:00.516Z,18.88
2023-05-17T00:24:27.598Z,18.81
2023-05-17T00:26:54.739Z,18.80
2023-05-17T00:29:21.687Z,18.80
2023-05-17T00:31:48.716Z,18.77
2023-05-17T00:34:15.979Z,18.74
2023-05-17T00:36:42.980Z,18.70
2023-05-17T00:39:10.315Z,18.70
2023-05-17T00:41:37.688Z,18.69
2023-05-17T00:44:04.887Z,18.63
2023-05-17T00:46:33.958Z,18.61
2023-05-17T00:49:01.224Z,18.53
2023-05-17T00:51:28.753Z,18.52
2023-05-17T00:53:55.962Z,18.56
2023-05-17T00:56:24.137Z,18.53
2023-05-17T00:58:51.301Z,18.42
2023-05-17T01:01:18.339Z,18.43
2023-05-17T01:03:46.673Z,18.41
2023-05-17T01:06:14.509Z,18.38
2023-05-17T01:08:42.586Z,18.32
2023-05-17T01:11:14.595Z,18.32
2023-05-17T01:14:19.167Z,18.25
2023-05-17T01:16:57.650Z,18.19
2023-05-17T01:19:50.819Z,18.21
2023-05-17T01:22:44.320Z,18.17
2023-05-17T01:25:24.678Z,18.12
2023-05-17T01:27:54.651Z,18.07
2023-05-17T01:30:26.027Z,18.05
2023-05-17T01:33:01.112Z,18.11
2023-05-17T01:35:28.522Z,18.12
2023-05-17T01:37:55.939Z,18.11
2023-05-17T01:40:24.484Z,18.06
2023-05-17T01:42:57.558Z,18.09
2023-05-17T01:45:54.000Z,18.05
2023-05-17T01:48:28.991Z,18.11
2023-05-17T01:51:00.703Z,18.08
2023-05-17T01:53:40.261Z,18.01
2023-05-17T01:56:15.134Z,18.00
2023-05-17T01:58:48.645Z,17.99
2023-05-17T02:01:18.902Z,17.98
2023-05-17T02:03:53.326Z,17.97
2023-05-17T02:06:20.355Z,17.95
2023-05-17T02:08:47.580Z,17.99
2023-05-17T02:11:14.648Z,17.97
2023-05-17T02:13:41.891Z,17.97
2023-05-17T02:16:09.062Z,17.96
2023-05-17T02:18:37.954Z,17.89
2023-05-17T02:21:08.805Z,17.80
2023-05-17T02:23:38.272Z,17.83
2023-05-17T02:26:11.254Z,17.79
2023-05-17T02:28:38.349Z,17.83
2023-05-17T02:31:07.771Z,17.85
2023-05-17T02:33:35.543Z,17.85
2023-05-17T02:36:02.613Z,17.87
2023-05-17T02:38:29.811Z,17.87
2023-05-17T02:40:56.839Z,17.80
2023-05-17T02:43:30.236Z,17.80
2023-05-17T02:45:59.923Z,17.71
2023-05-17T02:48:27.014Z,17.62
2023-05-17T02:50:54.085Z,17.53
2023-05-17T02:53:21.476Z,17.47
2023-05-17T02:55:48.567Z,17.44
2023-05-17T02:58:15.781Z,17.37
2023-05-17T03:00:46.650Z,17.31
2023-05-17T03:03:15.539Z,17.23
2023-05-17T03:05:42.669Z,17.12
2023-05-17T03:08:10.255Z,17.07
2023-05-17T03:10:37.205Z,17.04
2023-05-17T03:13:04.880Z,17.04
2023-05-17T03:15:36.161Z,16.93
2023-05-17T03:18:04.579Z,16.94
2023-05-17T03:20:31.680Z,16.94
2023-05-17T03:22:58.693Z,16.94
2023-05-17T03:25:25.963Z,16.93
2023-05-17T03:27:53.118Z,16.90
2023-05-17T03:30:21.119Z,16.95
2023-05-17T03:32:48.430Z,16.93
2023-05-17T03:35:24.832Z,16.93
2023-05-17T03:37:55.381Z,16.92
2023-05-17T03:40:26.705Z,16.90
2023-05-17T03:42:54.771Z,16.92
2023-05-17T03:45:24.718Z,16.84
2023-05-17T03:47:52.012Z,16.84
2023-05-17T03:50:19.672Z,16.88
2023-05-17T03:52:49.797Z,16.88
2023-05-17T03:55:17.000Z,16.91
2023-05-17T03:57:44.342Z,16.92
2023-05-17T04:00:12.538Z,16.92
2023-05-17T04:02:42.178Z,16.95
2023-05-17T04:05:10.967Z,16.95
2023-05-17T04:07:38.007Z,16.96
2023-05-17T04:10:06.281Z,16.97
2023-05-17T04:12:34.411Z,16.98
2023-05-17T04:15:02.000Z,16.99
2023-05-17T04:17:29.556Z,16.98
2023-05-17T04:19:56.979Z,16.97
2023-05-17T04:22:24.489Z,16.94
2023-05-17T04:24:53.099Z,16.91
2023-05-17T04:27:22.469Z,16.93
2023-05-17T04:29:49.603Z,16.90
2023-05-17T04:32:18.194Z,16.84
2023-05-17T04:34:45.464Z,16.77
2023-05-17T04:37:13.191Z,16.77
2023-05-17T04:39:40.989Z,16.75
2023-05-17T04:42:09.296Z,16.75
2023-05-17T04:44:40.702Z,16.73
2023-05-17T04:47:09.237Z,16.70
2023-05-17T04:49:37.558Z,16.69
2023-05-17T04:52:06.284Z,16.74
2023-05-17T04:54:34.970Z,16.75
2023-05-17T04:57:02.055Z,16.70
2023-05-17T04:59:49.039Z,16.68
2023-05-17T05:02:16.587Z,16.66
2023-05-17T05:04:43.875Z,16.70
2023-05-17T05:07:12.950Z,16.69
2023-05-17T05:09:40.581Z,16.74
2023-05-17T05:12:10.510Z,16.75
2023-05-17T05:14:38.260Z,16.76
2023-05-17T05:17:09.702Z,16.76
2023-05-17T05:19:38.392Z,16.68
2023-05-17T05:22:19.022Z,16.72
2023-05-17T05:24:46.464Z,16.76
2023-05-17T05:27:14.033Z,16.77
2023-05-17T05:29:42.768Z,16.73
2023-05-17T05:32:11.566Z,16.84
2023-05-17T05:34:44.187Z,16.86
2023-05-17T05:37:11.376Z,16.79
2023-05-17T05:39:38.655Z,16.82
2023-05-17T05:42:06.210Z,16.89
2023-05-17T05:44:33.240Z,16.91
2023-05-17T05:47:00.692Z,16.94
2023-05-17T05:49:27.824Z,16.99
2023-05-17T05:51:55.470Z,17.04
2023-05-17T05:54:23.094Z,17.24
2023-05-17T05:56:52.477Z,17.42
2023-05-17T05:59:20.959Z,17.68
2023-05-17T06:01:48.740Z,17.89
2023-05-17T06:04:16.133Z,18.02
2023-05-17T06:06:43.277Z,18.17
2023-05-17T06:09:13.866Z,18.27
2023-05-17T06:11:40.876Z,18.32
2023-05-17T06:14:08.491Z,18.43
2023-05-17T06:16:35.523Z,18.52
2023-05-17T06:19:02.653Z,18.61
2023-05-17T06:21:30.296Z,18.75
2023-05-17T06:23:59.045Z,18.84
2023-05-17T06:26:26.217Z,18.97
2023-05-17T06:28:53.432Z,19.05
2023-05-17T06:31:21.223Z,19.16
2023-05-17T06:33:48.296Z,19.26
2023-05-17T06:36:15.532Z,19.35
2023-05-17T06:38:42.573Z,19.47
2023-05-17T06:41:09.635Z,19.65
2023-05-17T06:43:37.760Z,19.77
2023-05-17T06:46:04.945Z,19.89
2023-05-17T06:48:32.144Z,19.97
2023-05-17T06:50:59.282Z,20.13
2023-05-17T06:53:27.377Z,20.25
2023-05-17T06:55:54.484Z,20.39
2023-05-17T06:58:21.811Z,20.56
2023-05-17T07:00:48.774Z,20.71
2023-05-17T07:03:16.069Z,21.01
2023-05-17T07:05:43.205Z,21.38
2023-05-17T07:08:10.247Z,21.77
2023-05-17T07:10:37.313Z,22.29
2023-05-17T07:13:04.458Z,22.86
2023-05-17T07:15:31.883Z,23.50
2023-05-17T07:17:59.575Z,24.04
2023-05-17T07:20:26.874Z,24.52
2023-05-17T07:22:53.851Z,25.17
2023-05-17T07:25:21.707Z,25.76
2023-05-17T07:27:49.074Z,26.35
2023-05-17T07:30:16.247Z,26.85
2023-05-17T07:32:43.319Z,27.42
2023-05-17T07:35:10.532Z,27.67
2023-05-17T07:37:37.467Z,28.13
2023-05-17T07:40:05.831Z,28.60
2023-05-17T07:42:33.522Z,28.97
2023-05-17T07:45:00.529Z,29.45
2023-05-17T07:47:27.487Z,29.89
2023-05-17T07:49:55.159Z,30.40
2023-05-17T07:52:22.194Z,30.84
2023-05-17T07:54:49.138Z,31.15
2023-05-17T07:57:16.148Z,31.55
2023-05-17T07:59:43.165Z,31.84
2023-05-17T08:02:10.223Z,32.06
2023-05-17T08:04:37.372Z,32.36
2023-05-17T08:07:05.572Z,32.44
2023-05-17T08:09:32.479Z,32.45
2023-05-17T08:11:59.527Z,32.26
2023-05-17T08:14:27.141Z,32.34
2023-05-17T08:16:54.025Z,32.43
2023-05-17T08:19:21.170Z,32.47
2023-05-17T08:21:49.348Z,32.76
2023-05-17T08:24:17.841Z,32.67
2023-05-17T08:26:45.048Z,32.85
2023-05-17T08:29:12.172Z,32.82
2023-05-17T08:31:39.257Z,32.57
2023-05-17T08:34:07.030Z,32.35
2023-05-17T08:36:34.547Z,31.96
2023-05-17T08:39:01.642Z,31.26
2023-05-17T08:41:30.816Z,30.72
2023-05-17T08:43:59.220Z,30.27
2023-05-17T08:46:27.037Z,29.55
2023-05-17T08:49:00.189Z,28.94
2023-05-17T08:51:27.895Z,28.48
2023-05-17T08:53:58.376Z,28.02
2023-05-17T08:56:28.997Z,27.52
2023-05-17T08:58:57.924Z,27.06
2023-05-17T09:01:26.881Z,26.92
2023-05-17T09:03:55.329Z,26.72
2023-05-17T09:06:23.396Z,26.59
2023-05-17T09:08:53.213Z,26.49
2023-05-17T09:11:31.383Z,26.40
2023-05-17T09:14:00.002Z,26.24
2023-05-17T09:16:33.661Z,26.20
2023-05-17T09:19:01.576Z,25.93
2023-05-17T09:21:31.150Z,25.34
2023-05-17T09:24:07.090Z,25.04
2023-05-17T09:26:46.027Z,24.46
2023-05-17T09:29:17.125Z,24.04
2023-05-17T09:31:44.847Z,23.68
2023-05-17T09:34:12.251Z,23.55
2023-05-17T09:36:44.833Z,23.36
2023-05-17T09:39:13.875Z,22.97
2023-05-17T09:41:51.351Z,22.84
2023-05-17T09:44:18.421Z,22.67
2023-05-17T09:46:47.545Z,22.87
2023-05-17T09:49:16.195Z,23.09
2023-05-17T09:51:45.128Z,23.02
2023-05-17T09:54:12.768Z,22.88
2023-05-17T09:56:40.387Z,22.80
2023-05-17T09:59:15.191Z,22.78
2023-05-17T10:01:45.433Z,22.83
2023-05-17T10:04:14.255Z,22.96
2023-05-17T10:09:15.923Z,23.23
2023-05-17T10:11:47.306Z,23.24
2023-05-17T10:14:23.333Z,23.30
2023-05-17T10:16:52.291Z,23.13
2023-05-17T10:19:21.499Z,23.10
2023-05-17T10:21:51.246Z,23.08
2023-05-17T10:24:20.440Z,22.83
2023-05-17T10:26:52.176Z,22.73
2023-05-17T10:29:22.020Z,22.82
2023-05-17T10:31:53.029Z,22.86
2023-05-17T10:34:20.863Z,22.85
2023-05-17T10:36:50.299Z,22.82
2023-05-17T10:39:18.685Z,22.69
2023-05-17T10:41:49.742Z,22.65
2023-05-17T10:44:18.901Z,22.56
2023-05-17T10:46:56.635Z,22.54
2023-05-17T10:49:32.542Z,22.50
2023-05-17T10:52:23.629Z,22.48
2023-05-17T10:54:51.149Z,22.41
2023-05-17T10:57:49.911Z,22.41
2023-05-17T11:00:22.230Z,22.37
2023-05-17T11:02:50.931Z,22.41
2023-05-17T11:05:28.361Z,22.43
2023-05-17T11:08:18.253Z,22.46
2023-05-17T11:11:10.485Z,22.51
2023-05-17T11:13:54.419Z,22.56
2023-05-17T11:16:24.373Z,22.53
2023-05-17T11:18:53.549Z,22.57
2023-05-17T11:21:22.687Z,22.63
2023-05-17T11:23:56.738Z,22.70
2023-05-17T11:26:27.969Z,22.74
2023-05-17T11:29:05.488Z,22.69
2023-05-17T11:31:34.988Z,22.58
2023-05-17T11:34:05.907Z,22.40
2023-05-17T11:36:48.542Z,21.92
2023-05-17T11:39:21.801Z,21.95
2023-05-17T11:41:51.927Z,21.97
2023-05-17T11:44:29.636Z,22.07
2023-05-17T11:47:10.875Z,22.09
2023-05-17T11:49:39.427Z,22.09
2023-05-17T11:52:08.203Z,22.06
2023-05-17T11:54:35.649Z,22.08
2023-05-17T11:57:04.109Z,22.06
2023-05-17T11:59:38.644Z,21.96
2023-05-17T12:02:05.953Z,21.92
2023-05-17T12:04:37.647Z,21.91
2023-05-17T12:07:05.600Z,21.88
2023-05-17T12:09:32.648Z,21.94
2023-05-17T12:12:04.255Z,22.05
2023-05-17T12:14:31.445Z,22.07
2023-05-17T12:17:00.938Z,22.15
2023-05-17T12:19:30.114Z,22.03
2023-05-17T12:22:12.871Z,22.07
2023-05-17T12:24:43.833Z,21.99
2023-05-17T12:27:11.520Z,21.92
2023-05-17T12:29:39.495Z,21.96
2023-05-17T12:32:08.913Z,21.96
2023-05-17T12:34:42.356Z,21.81
2023-05-17T12:37:13.355Z,21.72
2023-05-17T12:39:41.466Z,21.76
2023-05-17T12:42:09.832Z,21.81
2023-05-17T12:44:37.029Z,21.67
2023-05-17T12:47:04.214Z,21.75
2023-05-17T12:49:34.619Z,21.71
2023-05-17T12:52:05.822Z,21.69
2023-05-17T12:54:33.575Z,21.74
2023-05-17T12:57:12.861Z,21.62
2023-05-17T12:59:50.318Z,21.59
2023-05-17T13:02:17.792Z,21.59
2023-05-17T13:04:45.098Z,21.53
2023-05-17T13:07:12.675Z,21.38
2023-05-17T13:09:48.247Z,21.33
2023-05-17T13:12:24.052Z,21.29
2023-05-17T13:14:53.299Z,21.30
2023-05-17T13:17:34.771Z,21.28
2023-05-17T13:20:02.476Z,21.30
2023-05-17T13:22:29.489Z,21.28
2023-05-17T13:24:56.789Z,21.02
2023-05-17T13:27:24.048Z,21.07
2023-05-17T13:29:51.145Z,21.12
2023-05-17T13:32:19.254Z,21.17
2023-05-17T13:34:46.373Z,21.21
2023-05-17T13:37:13.423Z,21.25
2023-05-17T13:39:42.259Z,21.28
2023-05-17T13:42:11.075Z,21.06
2023-05-17T13:44:38.660Z,20.88
2023-05-17T13:47:06.391Z,20.84
2023-05-17T13:49:37.417Z,20.86
2023-05-17T13:52:08.678Z,20.69
2023-05-17T13:54:36.793Z,20.55
2023-05-17T13:57:04.533Z,20.50
2023-05-17T13:59:32.339Z,20.53
2023-05-17T14:01:59.556Z,20.46
2023-05-17T14:04:26.569Z,20.58
2023-05-17T14:06:55.214Z,20.43
2023-05-17T14:09:22.942Z,20.42
2023-05-17T14:11:50.240Z,20.47
2023-05-17T14:14:17.255Z,20.50
2023-05-17T14:16:44.296Z,20.52
2023-05-17T14:19:11.448Z,20.66
2023-05-17T14:21:38.458Z,20.70
2023-05-17T14:24:05.926Z,20.72
2023-05-17T14:26:32.989Z,20.74
2023-05-17T14:29:00.126Z,20.71
2023-05-17T14:31:29.960Z,20.65
2023-05-17T14:33:57.678Z,20.58
2023-05-17T14:36:24.809Z,20.68
2023-05-17T14:38:52.066Z,20.60
2023-05-17T14:41:19.150Z,20.64
2023-05-17T14:43:46.307Z,20.64
2023-05-17T14:46:14.764Z,20.66
2023-05-17T14:48:42.105Z,20.64
2023-05-17T14:51:09.383Z,20.63
2023-05-17T14:53:36.828Z,20.61
2023-05-17T14:56:04.006Z,20.59
2023-05-17T14:58:31.002Z,20.62
2023-05-17T15:01:05.270Z,20.61
2023-05-17T15:03:36.277Z,20.61
2023-05-17T15:06:10.089Z,20.62
2023-05-17T15:08:39.503Z,20.64
2023-05-17T15:11:10.867Z,20.67
2023-05-17T15:13:38.332Z,20.41
2023-05-17T15:16:05.787Z,20.56
2023-05-17T15:18:33.488Z,20.56
2023-05-17T15:21:05.649Z,20.53
2023-05-17T15:23:32.770Z,20.43
2023-05-17T15:25:59.963Z,20.41
2023-05-17T15:28:27.046Z,20.54
2023-05-17T15:31:06.614Z,20.55
2023-05-17T15:33:33.857Z,20.40
2023-05-17T15:36:00.865Z,20.53
2023-05-17T15:38:28.013Z,20.58
2023-05-17T15:41:16.141Z,20.55
2023-05-17T15:43:43.688Z,20.59
2023-05-17T15:46:11.787Z,20.64
2023-05-17T15:48:38.983Z,20.64
2023-05-17T15:51:06.744Z,20.62
2023-05-17T15:53:34.725Z,20.56
2023-05-17T15:56:01.744Z,20.56
2023-05-17T15:58:28.857Z,20.55
2023-05-17T16:00:56.015Z,20.49
2023-05-17T16:03:22.999Z,20.55
2023-05-17T16:05:50.235Z,20.41
2023-05-17T16:08:17.407Z,20.35
2023-05-17T16:10:44.462Z,20.33
2023-05-17T16:13:11.606Z,20.33
2023-05-17T16:15:38.726Z,20.27
2023-05-17T16:18:06.635Z,20.29
2023-05-17T16:20:34.089Z,20.23
2023-05-17T16:23:01.278Z,20.13
2023-05-17T16:25:28.794Z,20.18
2023-05-17T16:27:56.216Z,20.04
2023-05-17T16:30:23.447Z,19.99
2023-05-17T16:32:50.687Z,20.03
2023-05-17T16:35:19.987Z,20.03
2023-05-17T16:37:59.232Z,20.04
2023-05-17T16:40:29.052Z,20.03
2023-05-17T16:42:56.457Z,20.09
2023-05-17T16:45:23.491Z,20.16
2023-05-17T16:47:50.665Z,20.13
2023-05-17T16:50:21.163Z,19.94
2023-05-17T16:52:48.215Z,19.78
2023-05-17T16:55:18.846Z,19.83
2023-05-17T16:57:45.888Z,19.77
2023-05-17T17:00:13.507Z,19.78
2023-05-17T17:02:40.679Z,19.78
2023-05-17T17:05:08.240Z,19.91
2023-05-17T17:07:39.562Z,19.84
2023-05-17T17:10:10.345Z,19.84
2023-05-17T17:12:37.478Z,19.87
2023-05-17T17:15:07.532Z,19.88
2023-05-17T17:17:36.315Z,19.92
2023-05-17T17:20:09.221Z,20.00
2023-05-17T17:22:36.610Z,20.04
2023-05-17T17:25:04.460Z,20.10
2023-05-17T17:27:32.011Z,20.07
2023-05-17T17:29:59.200Z,19.99
2023-05-17T17:32:26.389Z,20.02
2023-05-17T17:34:53.568Z,20.06
2023-05-17T17:37:20.874Z,20.05
2023-05-17T17:39:47.926Z,19.99
2023-05-17T17:42:15.328Z,20.01
2023-05-17T17:44:42.389Z,19.92
2023-05-17T17:47:09.527Z,19.96
2023-05-17T17:49:42.165Z,19.90
2023-05-17T17:52:16.057Z,19.98
2023-05-17T17:54:44.695Z,19.92
2023-05-17T17:57:13.289Z,19.88
2023-05-17T17:59:40.564Z,19.85
2023-05-17T18:02:08.006Z,19.87
2023-05-17T18:04:35.083Z,19.83
2023-05-17T18:07:02.741Z,19.82
2023-05-17T18:09:30.280Z,19.86
2023-05-17T18:11:57.341Z,19.71
2023-05-17T18:14:24.393Z,19.73
2023-05-17T18:16:51.544Z,19.80
2023-05-17T18:19:18.978Z,19.78
2023-05-17T18:21:46.964Z,19.75
2023-05-17T18:24:14.072Z,19.73
2023-05-17T18:26:41.372Z,19.76
2023-05-17T18:29:08.462Z,19.67
2023-05-17T18:31:36.333Z,19.62
2023-05-17T18:34:03.370Z,19.66
2023-05-17T18:36:30.387Z,19.68
2023-05-17T18:38:59.285Z,19.65
2023-05-17T18:41:26.890Z,19.72
2023-05-17T18:43:54.017Z,19.71
2023-05-17T18:46:21.616Z,19.75
2023-05-17T18:48:48.897Z,19.75
2023-05-17T18:51:15.940Z,19.73
2023-05-17T18:53:43.003Z,19.69
2023-05-17T18:56:10.025Z,19.67
2023-05-17T18:58:37.188Z,19.71
2023-05-17T19:01:04.476Z,19.75
2023-05-17T19:03:32.112Z,19.78
2023-05-17T19:05:59.278Z,19.83
2023-05-17T19:08:26.730Z,19.82
2023-05-17T19:10:54.055Z,19.87
2023-05-17T19:13:21.116Z,19.87
2023-05-17T19:15:48.978Z,19.86
2023-05-17T19:18:16.107Z,19.82
2023-05-17T19:20:43.248Z,19.80
2023-05-17T19:23:10.479Z,19.82
2023-05-17T19:25:37.645Z,19.89
2023-05-17T19:28:05.149Z,19.92
2023-05-17T19:30:33.081Z,19.95
2023-05-17T19:33:00.482Z,20.01
2023-05-17T19:35:28.049Z,20.03
2023-05-17T19:37:57.489Z,20.11
2023-05-17T19:40:24.921Z,20.11
2023-05-17T19:42:52.482Z,20.15
2023-05-17T19:45:19.856Z,20.15
2023-05-17T19:47:50.404Z,20.15
2023-05-17T19:50:17.565Z,20.15
2023-05-17T19:52:44.576Z,20.14
2023-05-17T19:55:13.841Z,20.14
2023-05-17T19:57:41.015Z,20.19
2023-05-17T20:00:09.212Z,20.18
2023-05-17T20:02:36.465Z,20.18
2023-05-17T20:05:03.932Z,20.19
2023-05-17T20:07:31.584Z,20.21
2023-05-17T20:09:58.884Z,20.19
2023-05-17T20:12:26.718Z,20.19
2023-05-17T20:14:54.004Z,20.16
2023-05-17T20:17:21.782Z,20.20
2023-05-17T20:19:49.034Z,20.17
2023-05-17T20:22:17.161Z,20.20
2023-05-17T20:24:45.310Z,20.22
2023-05-17T20:27:16.626Z,20.19
2023-05-17T20:29:49.240Z,20.17
2023-05-17T20:32:17.096Z,20.19
2023-05-17T20:34:46.871Z,20.18
2023-05-17T20:37:14.895Z,20.20
2023-05-17T20:39:42.356Z,20.18
2023-05-17T20:42:09.936Z,20.16
2023-05-17T20:44:36.965Z,20.17
2023-05-17T20:47:06.022Z,20.19
2023-05-17T20:49:33.131Z,20.20
2023-05-17T20:52:03.594Z,20.21
2023-05-17T20:54:30.873Z,20.19
2023-05-17T20:56:58.832Z,20.22
2023-05-17T20:59:26.665Z,20.18
2023-05-17T21:01:54.003Z,20.17
2023-05-17T21:04:21.379Z,20.16
2023-05-17T21:06:48.658Z,20.20
2023-05-17T21:09:15.959Z,20.19
2023-05-17T21:11:44.216Z,20.20
2023-05-17T21:14:23.364Z,20.17
2023-05-17T21:16:50.478Z,20.20
2023-05-17T21:19:17.623Z,20.23
2023-05-17T21:21:44.837Z,20.25
2023-05-17T21:24:11.945Z,20.28
2023-05-17T21:26:40.869Z,20.27
2023-05-17T21:29:12.910Z,20.26
2023-05-17T21:31:43.384Z,20.24
2023-05-17T21:34:10.659Z,20.27
2023-05-17T21:36:37.836Z,20.26
2023-05-17T21:39:04.900Z,20.25
2023-05-17T21:41:32.209Z,20.23
2023-05-17T21:43:59.448Z,20.24
2023-05-17T21:46:26.731Z,20.21
2023-05-17T21:48:53.883Z,20.19
2023-05-17T21:51:22.283Z,20.15
2023-05-17T21:53:50.711Z,20.15
2023-05-17T21:56:17.909Z,20.15
2023-05-17T21:58:48.172Z,20.12
2023-05-17T22:01:15.360Z,20.08
2023-05-17T22:03:44.767Z,20.09
2023-05-17T22:06:12.027Z,20.05
2023-05-17T22:08:42.534Z,20.04
2023-05-17T22:11:11.144Z,19.97
2023-05-17T22:13:39.257Z,19.94
2023-05-17T22:16:06.795Z,19.96
2023-05-17T22:18:38.420Z,19.92
2023-05-17T22:21:05.696Z,19.88
2023-05-17T22:23:32.631Z,19.84
2023-05-17T22:26:00.804Z,19.85
2023-05-17T22:28:28.845Z,19.87
2023-05-17T22:30:56.222Z,19.83
2023-05-17T22:33:23.695Z,19.80
2023-05-17T22:35:53.655Z,19.75
2023-05-17T22:38:24.547Z,19.76
2023-05-17T22:40:52.101Z,19.77
2023-05-17T22:43:21.638Z,19.75
2023-05-17T22:45:53.713Z,19.72
2023-05-17T22:48:22.164Z,19.72
2023-05-17T22:50:50.713Z,19.72
2023-05-17T22:53:19.601Z,19.71
2023-05-17T22:55:49.337Z,19.69
2023-05-17T22:58:16.415Z,19.67
2023-05-17T23:00:44.703Z,19.63
2023-05-17T23:03:12.371Z,19.60
2023-05-17T23:05:39.677Z,19.58
2023-05-17T23:08:08.098Z,19.52
2023-05-17T23:10:35.144Z,19.52
2023-05-17T23:13:02.436Z,19.47
2023-05-17T23:15:29.830Z,19.48
2023-05-17T23:17:59.765Z,19.48
2023-05-17T23:20:26.943Z,19.46
2023-05-17T23:22:54.005Z,19.45
2023-05-17T23:25:21.471Z,19.48
2023-05-17T23:27:51.044Z,19.42
2023-05-17T23:30:18.237Z,19.43
2023-05-17T23:32:47.656Z,19.41
2023-05-17T23:35:14.854Z,19.39
2023-05-17T23:37:42.341Z,19.38
2023-05-17T23:40:09.959Z,19.36
2023-05-17T23:42:37.899Z,19.34
2023-05-17T23:45:05.448Z,19.35
2023-05-17T23:47:33.777Z,19.34
2023-05-17T23:50:03.115Z,19.36
2023-05-17T23:52:32.839Z,19.34
2023-05-17T23:55:00.214Z,19.34
2023-05-17T23:57:27.507Z,19.28
2023-05-17T23:59:54.540Z,19.31
